sensor_id;sensor_type;location;lat;lon;timestamp;pressure;altitude;pressure_sealevel;temperature;humidity
55675;BME280;41562;44.330;23.802;2023-09-19T00:00:31;100547.56;;;18.52;80.08
55675;BME280;41562;44.330;23.802;2023-09-19T00:02:59;100555.34;;;18.54;80.14
55675;BME280;41562;44.330;23.802;2023-09-19T00:05:34;100547.56;;;18.52;80.54
55675;BME280;41562;44.330;23.802;2023-09-19T00:08:02;100558.53;;;18.47;80.18
55675;BME280;41562;44.330;23.802;2023-09-19T00:10:31;100568.16;;;18.62;80.07
55675;BME280;41562;44.330;23.802;2023-09-19T00:13:02;100565.25;;;18.49;80.84
55675;BME280;41562;44.330;23.802;2023-09-19T00:15:31;100563.19;;;18.55;79.91
55675;BME280;41562;44.330;23.802;2023-09-19T00:18:04;100558.41;;;18.52;80.74
55675;BME280;41562;44.330;23.802;2023-09-19T00:20:32;100550.94;;;18.58;80.38
55675;BME280;41562;44.330;23.802;2023-09-19T00:23:02;100568.09;;;18.53;80.33
55675;BME280;41562;44.330;23.802;2023-09-19T00:25:30;100557.09;;;18.41;80.85
55675;BME280;41562;44.330;23.802;2023-09-19T00:27:58;100552.94;;;18.35;81.83
55675;BME280;41562;44.330;23.802;2023-09-19T00:30:29;100555.44;;;18.23;82.36
55675;BME280;41562;44.330;23.802;2023-09-19T00:32:56;100551.78;;;18.27;80.79
55675;BME280;41562;44.330;23.802;2023-09-19T00:35:24;100554.19;;;18.29;80.27
55675;BME280;41562;44.330;23.802;2023-09-19T00:37:52;100558.53;;;18.47;79.96
55675;BME280;41562;44.330;23.802;2023-09-19T00:40:20;100564.25;;;18.37;80.39
55675;BME280;41562;44.330;23.802;2023-09-19T00:42:52;100570.47;;;18.37;81.22
55675;BME280;41562;44.330;23.802;2023-09-19T00:45:24;100562.25;;;18.60;80.14
55675;BME280;41562;44.330;23.802;2023-09-19T00:47:55;100567.75;;;18.37;81.33
55675;BME280;41562;44.330;23.802;2023-09-19T00:50:28;100557.53;;;18.26;82.12
55675;BME280;41562;44.330;23.802;2023-09-19T00:52:58;100542.69;;;18.15;82.51
55675;BME280;41562;44.330;23.802;2023-09-19T00:55:29;100550.66;;;18.20;82.54
55675;BME280;41562;44.330;23.802;2023-09-19T00:58:00;100542.69;;;18.15;82.87
55675;BME280;41562;44.330;23.802;2023-09-19T01:00:28;100539.00;;;18.02;83.23
55675;BME280;41562;44.330;23.802;2023-09-19T01:02:56;100542.50;;;18.11;83.18
55675;BME280;41562;44.330;23.802;2023-09-19T01:05:24;100539.09;;;17.97;84.28
55675;BME280;41562;44.330;23.802;2023-09-19T01:07:55;100535.59;;;17.96;85.09
55675;BME280;41562;44.330;23.802;2023-09-19T01:10:29;100531.31;;;17.95;83.79
55675;BME280;41562;44.330;23.802;2023-09-19T01:20:42;100544.63;;;17.83;83.95
55675;BME280;41562;44.330;23.802;2023-09-19T01:23:32;100545.63;;;17.87;83.26
55675;BME280;41562;44.330;23.802;2023-09-19T01:26:18;100544.94;;;17.82;83.83
55675;BME280;41562;44.330;23.802;2023-09-19T01:28:56;100544.63;;;17.83;84.05
55675;BME280;41562;44.330;23.802;2023-09-19T01:31:31;100548.47;;;17.91;84.05
55675;BME280;41562;44.330;23.802;2023-09-19T01:34:02;100556.00;;;17.63;85.42
55675;BME280;41562;44.330;23.802;2023-09-19T01:36:32;100544.06;;;17.64;85.70
55675;BME280;41562;44.330;23.802;2023-09-19T01:39:08;100540.13;;;17.48;86.75
55675;BME280;41562;44.330;23.802;2023-09-19T01:45:30;100524.88;;;17.52;86.30
55675;BME280;41562;44.330;23.802;2023-09-19T01:47:53;100528.72;;;17.59;86.29
55675;BME280;41562;44.330;23.802;2023-09-19T01:50:34;100522.75;;;17.62;85.59
55675;BME280;41562;44.330;23.802;2023-09-19T01:53:44;100503.59;;;17.59;85.51
55675;BME280;41562;44.330;23.802;2023-09-19T01:56:25;100502.63;;;17.55;85.23
55675;BME280;41562;44.330;23.802;2023-09-19T01:59:06;100499.06;;;17.46;85.89
55675;BME280;41562;44.330;23.802;2023-09-19T02:01:42;100504.44;;;17.37;86.91
55675;BME280;41562;44.330;23.802;2023-09-19T02:04:15;100501.31;;;17.44;86.66
55675;BME280;41562;44.330;23.802;2023-09-19T02:06:42;100492.84;;;17.37;86.77
55675;BME280;41562;44.330;23.802;2023-09-19T02:09:11;100492.16;;;17.09;87.69
55675;BME280;41562;44.330;23.802;2023-09-19T02:11:43;100487.69;;;17.04;88.00
55675;BME280;41562;44.330;23.802;2023-09-19T02:14:10;100492.13;;;17.00;87.96
55675;BME280;41562;44.330;23.802;2023-09-19T02:16:40;100494.59;;;16.88;88.60
55675;BME280;41562;44.330;23.802;2023-09-19T02:19:08;100503.06;;;17.79;90.52
55675;BME280;41562;44.330;23.802;2023-09-19T02:21:36;100499.13;;;18.33;84.43
55675;BME280;41562;44.330;23.802;2023-09-19T02:24:04;100505.81;;;18.53;83.37
55675;BME280;41562;44.330;23.802;2023-09-19T02:26:32;100506.97;;;18.78;81.48
55675;BME280;41562;44.330;23.802;2023-09-19T02:29:02;100505.81;;;18.53;81.68
55675;BME280;41562;44.330;23.802;2023-09-19T02:31:36;100507.59;;;18.66;80.65
55675;BME280;41562;44.330;23.802;2023-09-19T02:34:10;100513.19;;;19.21;79.17
55675;BME280;41562;44.330;23.802;2023-09-19T02:36:44;100515.09;;;18.86;79.04
55675;BME280;41562;44.330;23.802;2023-09-19T02:39:11;100519.41;;;19.05;79.52
55675;BME280;41562;44.330;23.802;2023-09-19T02:41:45;100511.88;;;19.19;78.50
55675;BME280;41562;44.330;23.802;2023-09-19T02:44:12;100509.97;;;19.11;79.34
55675;BME280;41562;44.330;23.802;2023-09-19T02:46:43;100515.25;;;19.07;79.36
55675;BME280;41562;44.330;23.802;2023-09-19T02:49:11;100515.75;;;19.01;79.68
55675;BME280;41562;44.330;23.802;2023-09-19T02:51:39;100511.72;;;19.33;78.10
55675;BME280;41562;44.330;23.802;2023-09-19T02:54:12;100502.91;;;19.36;78.04
55675;BME280;41562;44.330;23.802;2023-09-19T02:56:40;100511.09;;;19.10;78.09
55675;BME280;41562;44.330;23.802;2023-09-19T02:59:08;100518.44;;;19.01;78.89
55675;BME280;41562;44.330;23.802;2023-09-19T03:01:36;100504.75;;;18.88;79.65
55675;BME280;41562;44.330;23.802;2023-09-19T03:04:09;100500.72;;;19.12;79.04
55675;BME280;41562;44.330;23.802;2023-09-19T03:06:39;100500.25;;;19.10;79.13
55675;BME280;41562;44.330;23.802;2023-09-19T03:09:10;100508.41;;;18.93;79.44
55675;BME280;41562;44.330;23.802;2023-09-19T03:11:39;100508.25;;;19.06;79.13
55675;BME280;41562;44.330;23.802;2023-09-19T03:14:07;100498.81;;;19.12;78.97
55675;BME280;41562;44.330;23.802;2023-09-19T03:16:38;100508.72;;;19.00;79.32
55675;BME280;41562;44.330;23.802;2023-09-19T03:19:11;100507.28;;;18.85;80.04
55675;BME280;41562;44.330;23.802;2023-09-19T03:21:42;100510.47;;;19.04;79.40
55675;BME280;41562;44.330;23.802;2023-09-19T03:24:10;100512.09;;;18.97;79.03
55675;BME280;41562;44.330;23.802;2023-09-19T03:26:38;100514.63;;;19.02;80.03
55675;BME280;41562;44.330;23.802;2023-09-19T03:29:08;100508.72;;;19.00;79.71
55675;BME280;41562;44.330;23.802;2023-09-19T03:31:36;100513.19;;;18.78;80.89
55675;BME280;41562;44.330;23.802;2023-09-19T03:34:04;100503.31;;;18.74;80.91
55675;BME280;41562;44.330;23.802;2023-09-19T03:36:35;100497.41;;;18.89;80.87
55675;BME280;41562;44.330;23.802;2023-09-19T03:39:04;100491.00;;;19.11;79.78
55675;BME280;41562;44.330;23.802;2023-09-19T03:41:32;100485.41;;;19.16;79.60
55675;BME280;41562;44.330;23.802;2023-09-19T03:44:00;100488.47;;;18.97;80.34
55675;BME280;41562;44.330;23.802;2023-09-19T03:46:28;100491.81;;;18.85;80.64
55675;BME280;41562;44.330;23.802;2023-09-19T03:48:55;100491.84;;;18.94;80.20
55675;BME280;41562;44.330;23.802;2023-09-19T03:51:29;100495.81;;;18.88;80.79
55675;BME280;41562;44.330;23.802;2023-09-19T03:54:00;100495.63;;;18.50;82.27
55675;BME280;41562;44.330;23.802;2023-09-19T03:56:29;100492.00;;;18.80;81.67
55675;BME280;41562;44.330;23.802;2023-09-19T03:58:56;100488.50;;;18.63;82.45
55675;BME280;41562;44.330;23.802;2023-09-19T04:01:24;100486.41;;;18.60;83.73
55675;BME280;41562;44.330;23.802;2023-09-19T04:03:52;100482.69;;;18.47;87.20
55675;BME280;41562;44.330;23.802;2023-09-19T04:06:27;100490.31;;;18.19;85.81
55675;BME280;41562;44.330;23.802;2023-09-19T04:08:55;100486.31;;;18.17;87.97
55675;BME280;41562;44.330;23.802;2023-09-19T04:11:22;100480.31;;;18.54;83.46
55675;BME280;41562;44.330;23.802;2023-09-19T04:13:53;100492.94;;;18.93;83.52
55675;BME280;41562;44.330;23.802;2023-09-19T04:16:20;100484.59;;;19.33;81.76
55675;BME280;41562;44.330;23.802;2023-09-19T04:18:51;100491.72;;;19.54;81.21
55675;BME280;41562;44.330;23.802;2023-09-19T04:21:18;100488.28;;;19.11;81.69
55675;BME280;41562;44.330;23.802;2023-09-19T04:23:49;100481.59;;;19.17;80.98
55675;BME280;41562;44.330;23.802;2023-09-19T04:26:19;100482.41;;;19.09;82.92
55675;BME280;41562;44.330;23.802;2023-09-19T04:28:52;100487.34;;;19.07;81.69
55675;BME280;41562;44.330;23.802;2023-09-19T04:31:28;100493.53;;;19.24;82.18
55675;BME280;41562;44.330;23.802;2023-09-19T04:34:00;100489.25;;;19.15;81.76
55675;BME280;41562;44.330;23.802;2023-09-19T04:36:35;100500.94;;;19.71;79.13
55675;BME280;41562;44.330;23.802;2023-09-19T04:39:03;100491.75;;;19.37;79.88
55675;BME280;41562;44.330;23.802;2023-09-19T04:41:40;100490.81;;;19.16;81.09
55675;BME280;41562;44.330;23.802;2023-09-19T04:44:15;100492.47;;;19.08;80.83
55675;BME280;41562;44.330;23.802;2023-09-19T04:46:52;100500.41;;;19.22;81.24
55675;BME280;41562;44.330;23.802;2023-09-19T04:49:28;100490.22;;;19.02;81.73
55675;BME280;41562;44.330;23.802;2023-09-19T04:51:59;100489.88;;;19.20;80.88
55675;BME280;41562;44.330;23.802;2023-09-19T04:54:37;100480.78;;;19.25;80.36
55675;BME280;41562;44.330;23.802;2023-09-19T04:57:19;100474.41;;;19.21;81.00
55675;BME280;41562;44.330;23.802;2023-09-19T04:59:58;100476.34;;;19.12;81.04
55675;BME280;41562;44.330;23.802;2023-09-19T05:02:36;100468.06;;;18.91;81.73
55675;BME280;41562;44.330;23.802;2023-09-19T05:05:40;100478.28;;;18.85;82.38
55675;BME280;41562;44.330;23.802;2023-09-19T05:08:10;100461.34;;;19.06;82.17
55675;BME280;41562;44.330;23.802;2023-09-19T05:10:43;100457.44;;;19.41;80.94
55675;BME280;41562;44.330;23.802;2023-09-19T05:13:25;100452.53;;;19.26;80.77
55675;BME280;41562;44.330;23.802;2023-09-19T05:16:31;100445.75;;;19.03;81.90
55675;BME280;41562;44.330;23.802;2023-09-19T05:19:04;100436.78;;;19.19;81.55
55675;BME280;41562;44.330;23.802;2023-09-19T05:21:51;100437.94;;;18.93;82.83
55675;BME280;41562;44.330;23.802;2023-09-19T05:24:32;100438.13;;;18.44;85.48
55675;BME280;41562;44.330;23.802;2023-09-19T05:27:09;100442.25;;;18.94;83.71
55675;BME280;41562;44.330;23.802;2023-09-19T05:29:47;100433.53;;;18.71;84.15
55675;BME280;41562;44.330;23.802;2023-09-19T05:32:22;100441.31;;;18.55;84.87
55675;BME280;41562;44.330;23.802;2023-09-19T05:34:57;100434.44;;;19.01;83.18
55675;BME280;41562;44.330;23.802;2023-09-19T05:37:35;100437.56;;;19.20;82.52
55675;BME280;41562;44.330;23.802;2023-09-19T05:40:15;100437.28;;;19.13;82.80
55675;BME280;41562;44.330;23.802;2023-09-19T05:42:53;100439.97;;;19.13;82.64
55675;BME280;41562;44.330;23.802;2023-09-19T05:45:24;100436.91;;;19.23;82.60
55675;BME280;41562;44.330;23.802;2023-09-19T05:48:06;100448.06;;;19.30;82.29
55675;BME280;41562;44.330;23.802;2023-09-19T05:50:38;100456.75;;;19.06;83.16
55675;BME280;41562;44.330;23.802;2023-09-19T05:53:12;100464.25;;;19.09;82.97
55675;BME280;41562;44.330;23.802;2023-09-19T05:55:44;100467.22;;;19.16;82.99
55675;BME280;41562;44.330;23.802;2023-09-19T05:58:21;100469.50;;;19.06;83.57
55675;BME280;41562;44.330;23.802;2023-09-19T06:00:53;100475.03;;;19.26;83.26
55675;BME280;41562;44.330;23.802;2023-09-19T06:03:24;100479.88;;;18.86;84.55
55675;BME280;41562;44.330;23.802;2023-09-19T06:05:58;100484.16;;;19.22;83.12
55675;BME280;41562;44.330;23.802;2023-09-19T06:08:40;100487.25;;;19.58;81.73
55675;BME280;41562;44.330;23.802;2023-09-19T06:11:14;100468.16;;;19.46;82.42
55675;BME280;41562;44.330;23.802;2023-09-19T06:13:49;100466.22;;;19.38;82.90
55675;BME280;41562;44.330;23.802;2023-09-19T06:16:23;100463.78;;;19.62;82.15
55675;BME280;41562;44.330;23.802;2023-09-19T06:18:55;100465.56;;;19.41;82.84
55675;BME280;41562;44.330;23.802;2023-09-19T06:21:23;100470.31;;;19.61;81.82
55675;BME280;41562;44.330;23.802;2023-09-19T06:23:54;100470.00;;;19.54;82.36
55675;BME280;41562;44.330;23.802;2023-09-19T06:26:25;100469.91;;;19.80;80.94
55675;BME280;41562;44.330;23.802;2023-09-19T06:28:56;100460.47;;;19.48;82.17
55675;BME280;41562;44.330;23.802;2023-09-19T06:31:31;100455.75;;;19.28;82.98
55675;BME280;41562;44.330;23.802;2023-09-19T06:34:02;100450.88;;;19.42;81.88
55675;BME280;41562;44.330;23.802;2023-09-19T06:36:33;100457.88;;;19.60;81.48
55675;BME280;41562;44.330;23.802;2023-09-19T06:39:07;100451.41;;;19.74;81.30
55675;BME280;41562;44.330;23.802;2023-09-19T06:41:42;100460.75;;;19.93;80.44
55675;BME280;41562;44.330;23.802;2023-09-19T06:44:16;100469.38;;;19.95;80.15
55675;BME280;41562;44.330;23.802;2023-09-19T06:46:47;100472.03;;;20.04;80.18
55675;BME280;41562;44.330;23.802;2023-09-19T06:49:15;100478.63;;;19.94;80.60
55675;BME280;41562;44.330;23.802;2023-09-19T06:51:50;100480.97;;;20.04;80.01
55675;BME280;41562;44.330;23.802;2023-09-19T06:54:21;100478.53;;;20.12;80.12
55675;BME280;41562;44.330;23.802;2023-09-19T06:57:01;100479.84;;;20.05;80.75
55675;BME280;41562;44.330;23.802;2023-09-19T06:59:32;100490.69;;;20.05;80.51
55675;BME280;41562;44.330;23.802;2023-09-19T07:02:09;100477.00;;;20.02;80.34
55675;BME280;41562;44.330;23.802;2023-09-19T07:04:41;100493.09;;;20.36;79.51
55675;BME280;41562;44.330;23.802;2023-09-19T07:07:15;100490.34;;;20.16;78.84
55675;BME280;41562;44.330;23.802;2023-09-19T07:09:48;100491.66;;;20.10;79.81
55675;BME280;41562;44.330;23.802;2023-09-19T07:12:23;100485.97;;;20.23;79.34
55675;BME280;41562;44.330;23.802;2023-09-19T07:14:51;100477.84;;;20.23;79.03
55675;BME280;41562;44.330;23.802;2023-09-19T07:17:24;100489.31;;;20.50;78.59
55675;BME280;41562;44.330;23.802;2023-09-19T07:19:53;100487.41;;;20.50;78.11
55675;BME280;41562;44.330;23.802;2023-09-19T07:22:24;100485.44;;;20.59;78.50
55675;BME280;41562;44.330;23.802;2023-09-19T07:25:00;100488.75;;;20.65;76.97
55675;BME280;41562;44.330;23.802;2023-09-19T07:27:31;100491.06;;;20.75;76.14
55675;BME280;41562;44.330;23.802;2023-09-19T07:30:05;100492.31;;;20.77;76.37
55675;BME280;41562;44.330;23.802;2023-09-19T07:32:33;100493.03;;;20.45;77.73
55675;BME280;41562;44.330;23.802;2023-09-19T07:35:05;100492.53;;;20.72;76.63
55675;BME280;41562;44.330;23.802;2023-09-19T07:37:37;100502.44;;;20.89;76.12
55675;BME280;41562;44.330;23.802;2023-09-19T07:40:08;100486.22;;;21.13;75.20
55675;BME280;41562;44.330;23.802;2023-09-19T07:42:40;100486.19;;;21.01;75.79
55675;BME280;41562;44.330;23.802;2023-09-19T07:45:11;100478.66;;;21.19;73.33
55675;BME280;41562;44.330;23.802;2023-09-19T07:47:49;100480.88;;;21.38;73.96
55675;BME280;41562;44.330;23.802;2023-09-19T07:50:22;100478.53;;;21.60;73.48
55675;BME280;41562;44.330;23.802;2023-09-19T07:52:55;100481.06;;;21.20;72.69
55675;BME280;41562;44.330;23.802;2023-09-19T07:55:25;100483.25;;;21.06;74.48
55675;BME280;41562;44.330;23.802;2023-09-19T07:58:03;100476.88;;;21.23;74.80
55675;BME280;41562;44.330;23.802;2023-09-19T08:00:31;100482.03;;;21.37;74.19
55675;BME280;41562;44.330;23.802;2023-09-19T08:03:06;100476.84;;;21.56;73.88
55675;BME280;41562;44.330;23.802;2023-09-19T08:05:51;100471.50;;;21.59;73.63
55675;BME280;41562;44.330;23.802;2023-09-19T08:08:22;100467.56;;;21.81;72.54
55675;BME280;41562;44.330;23.802;2023-09-19T08:10:59;100463.91;;;21.89;72.19
55675;BME280;41562;44.330;23.802;2023-09-19T08:13:30;100468.13;;;21.75;71.96
55675;BME280;41562;44.330;23.802;2023-09-19T08:16:04;100461.53;;;21.88;72.14
55675;BME280;41562;44.330;23.802;2023-09-19T08:18:42;100468.69;;;21.92;72.09
55675;BME280;41562;44.330;23.802;2023-09-19T08:25:04;100455.97;;;21.84;71.83
55675;BME280;41562;44.330;23.802;2023-09-19T08:28:31;100457.66;;;21.89;71.53
55675;BME280;41562;44.330;23.802;2023-09-19T08:31:11;100459.41;;;22.05;71.26
55675;BME280;41562;44.330;23.802;2023-09-19T08:33:50;100459.16;;;21.74;72.98
55675;BME280;41562;44.330;23.802;2023-09-19T08:36:27;100463.38;;;21.96;77.60
55675;BME280;41562;44.330;23.802;2023-09-19T08:38:59;100463.00;;;21.85;73.61
55675;BME280;41562;44.330;23.802;2023-09-19T08:41:37;100464.94;;;22.09;75.95
55675;BME280;41562;44.330;23.802;2023-09-19T08:44:08;100469.13;;;21.94;73.06
55675;BME280;41562;44.330;23.802;2023-09-19T08:46:49;100468.47;;;21.73;74.16
55675;BME280;41562;44.330;23.802;2023-09-19T08:49:36;100461.66;;;22.03;74.83
55675;BME280;41562;44.330;23.802;2023-09-19T08:59:00;100458.78;;;21.76;73.00
55675;BME280;41562;44.330;23.802;2023-09-19T09:01:31;100461.41;;;21.84;73.13
55675;BME280;41562;44.330;23.802;2023-09-19T09:07:27;100456.88;;;21.64;72.22
55675;BME280;41562;44.330;23.802;2023-09-19T09:09:57;100459.19;;;21.98;74.78
55675;BME280;41562;44.330;23.802;2023-09-19T09:12:32;100454.19;;;22.13;71.70
55675;BME280;41562;44.330;23.802;2023-09-19T09:15:06;100455.72;;;22.26;71.98
55675;BME280;41562;44.330;23.802;2023-09-19T09:17:37;100448.97;;;21.95;71.65
55675;BME280;41562;44.330;23.802;2023-09-19T09:20:11;100440.34;;;21.81;73.10
55675;BME280;41562;44.330;23.802;2023-09-19T09:23:03;100447.16;;;21.99;72.31
55675;BME280;41562;44.330;23.802;2023-09-19T09:25:50;100452.78;;;21.94;71.78
55675;BME280;41562;44.330;23.802;2023-09-19T09:28:26;100442.38;;;21.96;71.92
55675;BME280;41562;44.330;23.802;2023-09-19T09:31:03;100444.44;;;21.99;70.33
55675;BME280;41562;44.330;23.802;2023-09-19T09:33:36;100444.22;;;22.32;69.61
55675;BME280;41562;44.330;23.802;2023-09-19T09:36:12;100433.91;;;22.38;68.07
55675;BME280;41562;44.330;23.802;2023-09-19T09:38:45;100433.22;;;22.41;69.51
55675;BME280;41562;44.330;23.802;2023-09-19T09:41:19;100434.34;;;22.40;68.52
55675;BME280;41562;44.330;23.802;2023-09-19T09:43:50;100426.84;;;22.49;69.06
55675;BME280;41562;44.330;23.802;2023-09-19T09:46:21;100422.28;;;22.53;68.19
55675;BME280;41562;44.330;23.802;2023-09-19T09:49:01;100414.84;;;22.38;66.49
55675;BME280;41562;44.330;23.802;2023-09-19T09:51:34;100417.78;;;22.33;67.01
55675;BME280;41562;44.330;23.802;2023-09-19T09:54:12;100417.09;;;22.36;68.08
55675;BME280;41562;44.330;23.802;2023-09-19T09:57:00;100415.81;;;22.45;66.07
55675;BME280;41562;44.330;23.802;2023-09-19T10:02:30;100413.28;;;22.53;66.97
55675;BME280;41562;44.330;23.802;2023-09-19T10:05:30;100408.19;;;22.51;66.81
55675;BME280;41562;44.330;23.802;2023-09-19T10:08:17;100410.78;;;22.60;66.64
55675;BME280;41562;44.330;23.802;2023-09-19T10:11:16;100417.84;;;22.49;65.88
55675;BME280;41562;44.330;23.802;2023-09-19T10:18:01;100406.41;;;22.43;65.78
55675;BME280;41562;44.330;23.802;2023-09-19T10:21:38;100402.09;;;22.42;65.89
55675;BME280;41562;44.330;23.802;2023-09-19T10:24:10;100405.41;;;22.35;65.79
55675;BME280;41562;44.330;23.802;2023-09-19T10:26:41;100396.78;;;22.33;65.59
55675;BME280;41562;44.330;23.802;2023-09-19T10:29:13;100405.16;;;22.40;66.86
55675;BME280;41562;44.330;23.802;2023-09-19T10:31:47;100400.50;;;22.41;66.49
55675;BME280;41562;44.330;23.802;2023-09-19T10:34:17;100397.78;;;22.41;72.72
55675;BME280;41562;44.330;23.802;2023-09-19T10:36:55;100404.13;;;22.45;65.70
55675;BME280;41562;44.330;23.802;2023-09-19T10:39:33;100391.25;;;22.30;66.38
55675;BME280;41562;44.330;23.802;2023-09-19T10:42:14;100398.31;;;22.19;65.60
55675;BME280;41562;44.330;23.802;2023-09-19T10:44:55;100401.94;;;22.23;67.94
55675;BME280;41562;44.330;23.802;2023-09-19T10:47:28;100389.28;;;22.42;70.11
55675;BME280;41562;44.330;23.802;2023-09-19T10:50:02;100395.91;;;22.57;67.64
55675;BME280;41562;44.330;23.802;2023-09-19T10:52:31;100390.47;;;22.57;64.50
55675;BME280;41562;44.330;23.802;2023-09-19T10:55:03;100387.88;;;22.49;63.89
55675;BME280;41562;44.330;23.802;2023-09-19T10:57:35;100379.09;;;22.55;63.75
55675;BME280;41562;44.330;23.802;2023-09-19T11:00:06;100380.44;;;22.61;63.48
55675;BME280;41562;44.330;23.802;2023-09-19T11:02:41;100382.53;;;22.80;63.98
55675;BME280;41562;44.330;23.802;2023-09-19T11:05:16;100379.94;;;22.71;63.39
55675;BME280;41562;44.330;23.802;2023-09-19T11:07:58;100377.28;;;22.87;63.82
55675;BME280;41562;44.330;23.802;2023-09-19T11:10:50;100375.34;;;22.88;63.59
55675;BME280;41562;44.330;23.802;2023-09-19T11:13:30;100370.16;;;22.82;64.39
55675;BME280;41562;44.330;23.802;2023-09-19T11:16:05;100374.91;;;22.85;63.90
55675;BME280;41562;44.330;23.802;2023-09-19T11:26:44;100366.09;;;22.64;63.87
55675;BME280;41562;44.330;23.802;2023-09-19T11:29:31;100367.06;;;22.56;61.92
55675;BME280;41562;44.330;23.802;2023-09-19T11:32:01;100353.63;;;22.63;62.32
55675;BME280;41562;44.330;23.802;2023-09-19T11:34:44;100361.81;;;22.63;63.69
55675;BME280;41562;44.330;23.802;2023-09-19T11:40:09;100356.84;;;22.53;63.03
55675;BME280;41562;44.330;23.802;2023-09-19T11:42:47;100346.66;;;22.50;62.76
55675;BME280;41562;44.330;23.802;2023-09-19T11:48:13;100348.94;;;22.48;63.32
55675;BME280;41562;44.330;23.802;2023-09-19T11:50:47;100344.03;;;22.54;64.31
55675;BME280;41562;44.330;23.802;2023-09-19T11:53:24;100342.47;;;22.68;63.37
55675;BME280;41562;44.330;23.802;2023-09-19T11:56:08;100346.75;;;22.54;63.23
55675;BME280;41562;44.330;23.802;2023-09-19T11:58:40;100340.41;;;22.50;63.00
55675;BME280;41562;44.330;23.802;2023-09-19T12:01:21;100335.75;;;22.50;63.30
55675;BME280;41562;44.330;23.802;2023-09-19T12:03:56;100333.56;;;22.56;63.02
55675;BME280;41562;44.330;23.802;2023-09-19T12:06:29;100326.59;;;22.58;63.66
55675;BME280;41562;44.330;23.802;2023-09-19T12:09:00;100320.97;;;22.51;62.68
55675;BME280;41562;44.330;23.802;2023-09-19T12:11:29;100336.19;;;22.52;62.66
55675;BME280;41562;44.330;23.802;2023-09-19T12:14:06;100336.63;;;22.54;63.05
55675;BME280;41562;44.330;23.802;2023-09-19T12:16:38;100328.84;;;22.68;62.56
55675;BME280;41562;44.330;23.802;2023-09-19T12:19:24;100327.59;;;22.66;62.33
55675;BME280;41562;44.330;23.802;2023-09-19T12:22:02;100325.22;;;22.64;62.64
55675;BME280;41562;44.330;23.802;2023-09-19T12:24:42;100321.81;;;22.67;61.91
55675;BME280;41562;44.330;23.802;2023-09-19T12:27:15;100322.25;;;22.69;62.70
55675;BME280;41562;44.330;23.802;2023-09-19T12:29:55;100307.03;;;22.68;61.51
55675;BME280;41562;44.330;23.802;2023-09-19T12:32:36;100310.66;;;22.72;62.47
55675;BME280;41562;44.330;23.802;2023-09-19T12:35:11;100305.91;;;22.69;62.20
55675;BME280;41562;44.330;23.802;2023-09-19T12:37:57;100315.06;;;22.77;61.86
55675;BME280;41562;44.330;23.802;2023-09-19T12:40:38;100309.72;;;22.80;61.20
55675;BME280;41562;44.330;23.802;2023-09-19T12:43:07;100317.78;;;22.77;60.24
55675;BME280;41562;44.330;23.802;2023-09-19T12:45:42;100306.25;;;22.83;60.50
55675;BME280;41562;44.330;23.802;2023-09-19T12:48:25;100299.94;;;22.79;59.10
55675;BME280;41562;44.330;23.802;2023-09-19T12:53:40;100295.00;;;22.85;60.49
55675;BME280;41562;44.330;23.802;2023-09-19T12:56:30;100291.59;;;22.88;58.55
55675;BME280;41562;44.330;23.802;2023-09-19T13:00:04;100290.81;;;22.88;58.01
55675;BME280;41562;44.330;23.802;2023-09-19T13:06:53;100296.97;;;23.00;57.43
55675;BME280;41562;44.330;23.802;2023-09-19T13:10:12;100288.84;;;23.04;56.81
55675;BME280;41562;44.330;23.802;2023-09-19T13:13:25;100292.63;;;23.15;57.32
55675;BME280;41562;44.330;23.802;2023-09-19T13:16:30;100292.19;;;23.13;55.95
55675;BME280;41562;44.330;23.802;2023-09-19T13:19:06;100288.47;;;23.37;56.70
55675;BME280;41562;44.330;23.802;2023-09-19T13:21:38;100284.59;;;23.38;56.71
55675;BME280;41562;44.330;23.802;2023-09-19T13:24:24;100287.22;;;23.34;56.25
55675;BME280;41562;44.330;23.802;2023-09-19T13:27:00;100277.31;;;23.26;56.15
55675;BME280;41562;44.330;23.802;2023-09-19T13:29:35;100286.34;;;23.30;57.59
55675;BME280;41562;44.330;23.802;2023-09-19T13:32:07;100274.75;;;23.33;59.83
55675;BME280;41562;44.330;23.802;2023-09-19T13:34:38;100270.16;;;23.37;62.18
55675;BME280;41562;44.330;23.802;2023-09-19T13:37:12;100266.63;;;23.37;63.01
55675;BME280;41562;44.330;23.802;2023-09-19T13:39:45;100268.72;;;23.43;63.92
55675;BME280;41562;44.330;23.802;2023-09-19T13:42:19;100269.63;;;23.47;63.90
55675;BME280;41562;44.330;23.802;2023-09-19T13:44:53;100268.00;;;23.46;64.18
55675;BME280;41562;44.330;23.802;2023-09-19T13:47:48;100259.41;;;23.44;63.13
55675;BME280;41562;44.330;23.802;2023-09-19T13:50:35;100260.53;;;23.43;63.10
55675;BME280;41562;44.330;23.802;2023-09-19T13:53:08;100276.47;;;23.41;63.59
55675;BME280;41562;44.330;23.802;2023-09-19T13:55:43;100272.66;;;23.46;63.27
55675;BME280;41562;44.330;23.802;2023-09-19T13:58:13;100270.16;;;23.37;63.59
55675;BME280;41562;44.330;23.802;2023-09-19T14:00:48;100269.28;;;23.33;64.13
55675;BME280;41562;44.330;23.802;2023-09-19T14:03:36;100267.69;;;23.32;64.86
55675;BME280;41562;44.330;23.802;2023-09-19T14:06:41;100281.69;;;23.31;64.72
55675;BME280;41562;44.330;23.802;2023-09-19T14:10:06;100278.44;;;23.25;65.12
55675;BME280;41562;44.330;23.802;2023-09-19T14:12:46;100266.75;;;23.24;65.12
55675;BME280;41562;44.330;23.802;2023-09-19T14:15:17;100264.81;;;23.25;66.15